ADDS METAR Data INFO
IDs: Format: Raw Decoded Include TAF

Data at: 2310 UTC 16 Jan 2018

KRQO 162255Z AUTO 36013KT 10SM CLR M07/M20 A3071 RMK AO2 T10751200
KRQO 162235Z AUTO 35013KT 10SM CLR M07/M20 A3071 RMK AO2 T10731200
KRQO 162215Z AUTO 01013G16KT 10SM CLR M07/M20 A3071 RMK AO2 T10721201
KRQO 162155Z AUTO 36012KT 10SM CLR M07/M20 A3071 RMK AO2 T10681200
KRQO 162135Z AUTO 36013KT 10SM CLR M07/M20 A3071 RMK AO2 T10691203
KRQO 162115Z AUTO 34014KT 10SM CLR M07/M20 A3072 RMK AO2 T10691201
KRQO 162055Z AUTO 33012G19KT 10SM CLR M07/M20 A3072 RMK AO2 T10711202
KRQO 162035Z AUTO 35012KT 10SM CLR M07/M20 A3072 RMK AO2 T10721202
KRQO 162015Z AUTO 33013G17KT 10SM CLR M08/M20 A3073 RMK AO2 T10761205
KRQO 161955Z AUTO 34015KT 10SM CLR M08/M20 A3074 RMK AO2 T10821204
KRQO 161935Z AUTO 36011G16KT 10SM CLR M09/M20 A3075 RMK AO2 T10861204
KRQO 161915Z AUTO 34014G20KT 10SM CLR M09/M20 A3075 RMK AO2 T10861200
KRQO 161855Z AUTO 33017KT 10SM CLR M09/M20 A3077 RMK AO2 T10871200
KRQO 161835Z AUTO 34015G18KT 10SM CLR M09/M20 A3078 RMK AO2 T10941198
KRQO 161815Z AUTO 33016G19KT 10SM CLR M10/M20 A3080 RMK AO2 T11021201
KRQO 161755Z AUTO 34015KT 10SM CLR M11/M20 A3081 RMK AO2 T11051201 11101 21155
KRQO 161735Z AUTO 34015G21KT 10SM CLR M10/M20 A3082 RMK AO2 T11041200
KRQO 161715Z AUTO 34016G20KT 10SM CLR M11/M20 A3083 RMK AO2 T11071199
KRQO 161655Z AUTO 35014KT 10SM CLR M11/M20 A3084 RMK AO2 T11141203
KRQO 161635Z AUTO 34014KT 10SM CLR M11/M20 A3085 RMK AO2 T11121200
KRQO 161615Z AUTO 34016G20KT 10SM CLR M12/M20 A3085 RMK AO2 T11191204
KRQO 161555Z AUTO 36016KT 10SM CLR M12/M20 A3084 RMK AO2 T11211203
KRQO 161535Z AUTO 33015KT 10SM CLR M12/M20 A3084 RMK AO2 T11251200
KRQO 161515Z AUTO 35014KT 10SM CLR M13/M20 A3083 RMK AO2 T11291201
KRQO 161455Z AUTO 35014KT 10SM CLR M13/M20 A3083 RMK AO2 T11331198
KRQO 161435Z AUTO 34010KT 10SM CLR M14/M20 A3083 RMK AO2 T11411197
KRQO 161415Z AUTO 33008KT 10SM CLR M15/M20 A3082 RMK AO2 T11491199
KRQO 161355Z AUTO 33006KT 10SM CLR M15/M20 A3082 RMK AO2 T11541200
KRQO 161335Z AUTO 33009KT 10SM CLR M15/M20 A3081 RMK AO2 T11531199
KRQO 161315Z AUTO 33010KT 10SM CLR M15/M20 A3081 RMK AO2 T11521199
KRQO 161255Z AUTO 33007KT 10SM CLR M15/M20 A3080 RMK AO2 T11501198
KRQO 161235Z AUTO 34008KT 10SM CLR M15/M20 A3080 RMK AO2 T11521199
KRQO 161215Z AUTO 35011KT 10SM CLR M15/M20 A3078 RMK AO2 T11481198
KRQO 161155Z AUTO 35015KT 10SM CLR M15/M20 A3078 RMK AO2 T11451197 11092 21146
KRQO 161135Z AUTO 35013KT 10SM CLR M14/M20 A3077 RMK AO2 T11441196
KRQO 161115Z AUTO 35014KT 10SM CLR M14/M20 A3076 RMK AO2 T11431196
KRQO 161055Z AUTO 35013G17KT 10SM CLR M14/M20 A3076 RMK AO2 T11411195
KRQO 161035Z AUTO 35013KT 10SM CLR M14/M20 A3076 RMK AO2 T11391195
KRQO 161015Z AUTO 35015KT 10SM CLR M14/M20 A3075 RMK AO2 T11361195
KRQO 160955Z AUTO 35014KT 10SM CLR M14/M20 A3076 RMK AO2 T11351196
KRQO 160935Z AUTO 36017KT 10SM CLR M13/M20 A3075 RMK AO2 T11321196
KRQO 160915Z AUTO 36015KT 10SM CLR M13/M19 A3075 RMK AO2 T11321192
KRQO 160855Z AUTO 36017KT 10SM CLR M13/M19 A3075 RMK AO2 T11301192
KRQO 160835Z AUTO 36015KT 10SM CLR M13/M19 A3074 RMK AO2 T11311193
KRQO 160815Z AUTO 36014KT 10SM CLR M13/M19 A3074 RMK AO2 T11271195
KRQO 160755Z AUTO 36015KT 10SM CLR M12/M20 A3074 RMK AO2 T11251198
KRQO 160735Z AUTO 01015KT 10SM CLR M12/M20 A3074 RMK AO2 T11201199
KRQO 160715Z AUTO 36022G27KT 10SM CLR M11/M20 A3074 RMK AO2 T11121197
KRQO 160655Z AUTO 36019KT 10SM CLR M10/M19 A3074 RMK AO2 T11031189
KRQO 160635Z AUTO 36021G29KT 10SM CLR M10/M19 A3074 RMK AO2 T11001186
KRQO 160615Z AUTO 36024G28KT 10SM CLR M10/M18 A3073 RMK AO2 T10971177
KRQO 160555Z AUTO 35021KT 10SM SCT120 M09/M17 A3073 RMK AO2 T10921169 11063 21092
KRQO 160535Z AUTO 35022G28KT 10SM BKN120 M09/M17 A3073 RMK AO2 T10881167
KRQO 160515Z AUTO 35025G31KT 10SM OVC120 M09/M17 A3073 RMK AO2 T10851168
KRQO 160455Z AUTO 36021G26KT 10SM OVC120 M09/M16 A3074 RMK AO2 T10851165
KRQO 160435Z AUTO 36019G28KT 10SM OVC120 M08/M16 A3073 RMK AO2 T10841165
KRQO 160415Z AUTO 36025G31KT 10SM OVC120 M08/M17 A3071 RMK AO2 T10831166
KRQO 160355Z AUTO 36023G30KT 10SM BKN120 M08/M17 A3071 RMK AO2 T10821166
KRQO 160335Z AUTO 36022G30KT 10SM BKN120 M08/M17 A3070 RMK AO2 T10821166
KRQO 160315Z AUTO 36019KT 10SM SCT120 M09/M16 A3070 RMK AO2 T10851163
KRQO 160255Z AUTO 36016G22KT 10SM BKN110 M09/M17 A3069 RMK AO2 T10891166
KRQO 160235Z AUTO 36017KT 10SM BKN110 M09/M16 A3069 RMK AO2 T10851164
KRQO 160215Z AUTO 36018G21KT 10SM SCT110 M09/M16 A3067 RMK AO2 T10851164
KRQO 160155Z AUTO 01019KT 10SM BKN110 M08/M16 A3066 RMK AO2 T10811161
KRQO 160135Z AUTO 01022G25KT 10SM OVC100 M07/M16 A3065 RMK AO2 T10741161
KRQO 160115Z AUTO 01021G25KT 10SM OVC090 M07/M16 A3064 RMK AO2 T10711162
KRQO 160055Z AUTO 01020G24KT 10SM OVC090 M07/M16 A3064 RMK AO2 T10671158
KRQO 160035Z AUTO 36022KT 10SM OVC090 M07/M15 A3062 RMK AO2 T10651148
KRQO 160015Z AUTO 36019G25KT 10SM OVC080 M06/M15 A3061 RMK AO2 T10641150
KRQO 152355Z AUTO 36021G25KT 10SM OVC080 M06/M14 A3061 RMK AO2 T10621145 10025 21062 400461062
KRQO 152335Z AUTO 01019G25KT 10SM OVC080 M06/M14 A3060 RMK AO2 T10591139
KRQO 152315Z AUTO 01017KT 10SM OVC080 M06/M14 A3059 RMK AO2 T10561141
KRQO 152255Z AUTO 02019G23KT 10SM OVC080 M05/M15 A3058 RMK AO2 T10541148
KRQO 152235Z AUTO 01021G25KT 10SM OVC080 M05/M15 A3057 RMK AO2 T10511150
KRQO 152215Z AUTO 01022G25KT 10SM OVC080 M05/M15 A3056 RMK AO2 T10471152
KRQO 152155Z AUTO 02023KT 10SM OVC070 M05/M16 A3054 RMK AO2 T10471157
KRQO 152135Z AUTO 01023G29KT 10SM OVC070 M04/M16 A3053 RMK AO2 T10431157
KRQO 152115Z AUTO 01024G29KT 10SM OVC070 M04/M17 A3052 RMK AO2 T10421170
KRQO 152055Z AUTO 36027KT 10SM OVC070 M04/M18 A3051 RMK AO2 T10381178
KRQO 152035Z AUTO 02024KT 10SM OVC070 M03/M19 A3050 RMK AO2
KRQO 152015Z AUTO 01024G35KT 10SM OVC070 M02/M18 A3050 RMK AO2 T10211177
KRQO 151955Z AUTO 01029KT 10SM BKN070 M01/M19 A3048 RMK AO2 T10131187
KRQO 151935Z AUTO 01025G33KT 10SM SCT070 00/M12 A3047 RMK AO2 T10041123
KRQO 151915Z AUTO 02026G31KT 10SM SCT021 00/M09 A3047 RMK AO2 T00021085
KRQO 151855Z AUTO 01025G32KT 10SM BKN023 BKN027 BKN065 01/M06 A3047 RMK AO2 T00061062
KRQO 151835Z AUTO 01027G33KT 10SM SCT026 SCT050 BKN065 02/M06 A3047 RMK AO2 T00161058
KRQO 151815Z AUTO 01027G33KT 10SM SCT023 SCT029 BKN050 01/M06 A3047 RMK AO2 T00071062
KRQO 151755Z AUTO 02027G32KT 10SM BKN025 BKN030 02/M05 A3046 RMK AO2 T00151048 10032 21042
KRQO 151735Z AUTO 03022G31KT 10SM BKN021 OVC026 02/M05 A3046 RMK AO2 T00201048
KRQO 151715Z AUTO 03030G35KT 10SM OVC021 02/M05 A3044 RMK AO2 T00201045
KRQO 151655Z AUTO 02030G35KT 10SM BKN021 BKN039 02/M03 A3044 RMK AO2 T00221028
KRQO 151635Z AUTO 02030G34KT 10SM SCT021 BKN037 03/M03 A3042 RMK AO2 T00311028
KRQO 151615Z AUTO 03032G38KT 10SM SCT020 OVC037 03/M03 A3041 RMK AO2 T00291031
KRQO 151555Z AUTO 02026G30KT 10SM OVC018 02/M02 A3041 RMK AO2 T00241021
KRQO 151535Z AUTO 02025G34KT 10SM BKN016 OVC033 03/M01 A3040 RMK AO2 T00291013
KRQO 151515Z AUTO 01020KT 10SM SCT016 BKN033 02/M01 A3039 RMK AO2 T00241005
KRQO 151455Z AUTO 01017KT 10SM SCT016 02/M01 A3037 RMK AO2 T00191012
KRQO 151435Z AUTO 01016KT 10SM BKN016 02/M01 A3036 RMK AO2 T00231010
KRQO 151415Z AUTO 03016KT 10SM CLR 01/M02 A3034 RMK AO2 T00151016
KRQO 151355Z AUTO 02016KT 10SM CLR 00/M03 A3033 RMK AO2 T00031028
KRQO 151335Z AUTO 02015KT 10SM CLR 00/M05 A3031 RMK AO2 T10041047
KRQO 151315Z AUTO 01013KT 10SM CLR 00/M06 A3030 RMK AO2 T10041059
KRQO 151255Z AUTO 36010KT 10SM CLR M04/M08 A3029 RMK AO2 T10401076
KRQO 151235Z AUTO 04007KT 10SM CLR M02/M07 A3027 RMK AO2 T10201072
KRQO 151215Z AUTO 01009KT 10SM CLR M01/M07 A3027 RMK AO2 T10141067
KRQO 151155Z AUTO 35011KT 10SM CLR M02/M07 A3027 RMK AO2 T10161068 10005 21032
KRQO 151135Z AUTO 00000KT 10SM CLR M02/M08 A3024 RMK AO2 T10211076
KRQO 151115Z AUTO 17004KT 10SM CLR M01/M07 A3023 RMK AO2 T10101074